Littleton, WV (26581)

7:38 AM EDT on July 23, 2014 (GMT -0400)
Curtisville (KWVMANNI4) Elev 1017 ft | 39.52 °N, 80.44 °W | Change Station

Current weather conditions updated 15 minutes ago

Mostly Cloudy
Mostly Cloudy
67.5 °F
Feels Like 67.5 °F
N
0.0
Wind Variable Wind from WNW

Today is forecast to be Cooler than yesterday. Afternoon thunderstorms.

Today
High -- | Low -- °F
--% Chance of Precip.
Yesterday
High -- | Low -- °F
Precip. -- in
6:13 AM 8:43 PM
Waning Crescent, 11% visible
Pressure 30.02 in
Visibility 10.0 miles
Clouds Scattered Clouds 4200 ft
Mostly Cloudy 6000 ft
Mostly Cloudy 8500 ft
Dew Point 67 °F
Humidity 99%
Rainfall 0.00 in
Snow Depth Not available.
UV 0 out of 12
Pollen 5.80 out of 12
Air Quality Not available.
Flu Activity Not available.
METAR KCKB 231053Z 00000KT 10SM SCT042 BKN060 BKN085 21/19 A3007 RMK AO2 SLP164 T02110194

More Conditions Fewer Conditions

Pressure 30.02 in
Visibility 10.0 miles
Clouds Scattered Clouds 4200 ft
Mostly Cloudy 6000 ft
Mostly Cloudy 8500 ft
Dew Point 67 °F
Humidity 99%
Rainfall 0.00 in
Snow Depth Not available.
UV 0 out of 12
Pollen 5.80 out of 12
Air Quality Not available.
Flu Activity Not available.
METAR KCKB 231053Z 00000KT 10SM SCT042 BKN060 BKN085 21/19 A3007 RMK AO2 SLP164 T02110194

More Conditions Fewer Conditions

10-Day Weather Forecast

Almanac

Astronomy

Jul. 23, 2014 Rise Set
Actual Time 6:13 AM EDT 8:43 PM EDT
Civil Twilight 5:42 AM EDT 9:14 PM EDT
Nautical Twilight 5:04 AM EDT 9:52 PM EDT
Astronomical Twilight 4:21 AM EDT 10:35 PM EDT
Moon 3:31 AM EDT 6:11 PM EDT
Length of Visible Light 15h 31m
Length of Day
14h 30m
Tomorrow will be 1m 40s shorter.
Waning Crescent, 11% of the Moon is Illuminated
Today
Waning Crescent
Jul 26
New
Aug 3
First Quarter
Aug 10
Full
Aug 17
Last Quarter

Today's Extremes

State Highs State Lows

Community

WunderPhotos

Upload Photos

1,736,560 photos uploaded!

Nearby

Snow Depth

Station Depth Elevation
No new snow has been reported.

Earthquake Activity

City Distance Mag. Time & Date
No recent earthquake activity has been reported nearby.
Minimum magnitude displayed is 2.5.

Coastal Water Temperatures

Place Temperature
No Stations Reporting

Nearby Weather Stations

Station Location Temp. Dew Point Humidity Wind Precip. Elev Updated Type
Curtisville, Mannington, WV 67.5 °F 67 °F 99% WNW  at  0.0 mph - / hr 1017 ft 7:23 AM EDT Normal
Kidwell, WV, Sistersville, WV 69.1 °F 69 °F 99% SSW  at  0.0 mph - / hr 738 ft 7:36 AM EDT Normal
Marshville, Salem, WV 70.2 °F 66 °F 86% North  at  0.0 mph - / hr 1122 ft 7:27 AM EDT Normal
Shadyside, Ohio, Shadyside, OH 72.1 °F 71 °F 95% SSW  at  0.0 mph 0.00 in / hr 669 ft 7:38 AM EDT Rapid Fire

Show More Stations Show Fewer Stations